createdAt,value
2022-12-27T00:00:54.312Z,95.90
2022-12-27T00:03:22.351Z,96.25
2022-12-27T00:05:49.872Z,96.55
2022-12-27T00:08:17.419Z,96.88
2022-12-27T00:10:45.204Z,97.08
2022-12-27T00:13:12.697Z,97.41
2022-12-27T00:15:40.094Z,97.62
2022-12-27T00:18:07.867Z,97.79
2022-12-27T00:20:35.330Z,98.03
2022-12-27T00:23:02.922Z,98.33
2022-12-27T00:25:30.661Z,98.61
2022-12-27T00:27:58.202Z,98.93
2022-12-27T00:30:25.660Z,99.08
2022-12-27T00:32:53.361Z,99.23
2022-12-27T00:35:20.855Z,99.10
2022-12-27T00:37:48.390Z,99.42
2022-12-27T00:40:16.158Z,99.58
2022-12-27T00:42:43.537Z,99.48
2022-12-27T00:45:11.542Z,99.60
2022-12-27T00:47:40.263Z,99.70
2022-12-27T00:50:08.022Z,99.88
2022-12-27T00:52:35.400Z,99.98
2022-12-27T00:55:03.700Z,100.00
2022-12-27T00:57:31.193Z,100.00
2022-12-27T00:59:58.818Z,100.00
2022-12-27T01:02:26.600Z,100.00
2022-12-27T01:04:55.111Z,100.00
2022-12-27T01:07:22.878Z,100.00
2022-12-27T01:09:50.626Z,100.00
2022-12-27T01:12:18.103Z,100.00
2022-12-27T01:14:45.608Z,100.00
2022-12-27T01:17:13.414Z,100.00
2022-12-27T01:19:41.069Z,100.00
2022-12-27T01:22:08.545Z,100.00
2022-12-27T01:24:36.410Z,100.00
2022-12-27T01:27:03.914Z,100.00
2022-12-27T01:29:32.273Z,100.00
2022-12-27T01:32:00.055Z,100.00
2022-12-27T01:34:27.596Z,100.00
2022-12-27T01:36:55.083Z,100.00
2022-12-27T01:39:22.997Z,100.00
2022-12-27T01:42:09.125Z,100.00
2022-12-27T01:44:40.167Z,100.00
2022-12-27T01:47:14.065Z,100.00
2022-12-27T01:50:11.180Z,99.96
2022-12-27T01:52:49.289Z,99.52
2022-12-27T01:55:22.850Z,99.56
2022-12-27T01:57:54.200Z,99.36
2022-12-27T02:00:21.991Z,99.43
2022-12-27T02:02:51.246Z,99.25
2022-12-27T02:05:20.698Z,99.24
2022-12-27T02:08:26.323Z,99.08
2022-12-27T02:10:56.277Z,99.08
2022-12-27T02:13:24.123Z,98.72
2022-12-27T02:15:51.832Z,98.43
2022-12-27T02:18:19.820Z,98.36
2022-12-27T02:20:47.264Z,98.47
2022-12-27T02:23:45.525Z,98.01
2022-12-27T02:26:24.456Z,98.33
2022-12-27T02:29:07.049Z,98.35
2022-12-27T02:32:07.161Z,98.48
2022-12-27T02:35:10.014Z,98.35
2022-12-27T02:37:49.824Z,98.47
2022-12-27T02:40:39.583Z,98.77
2022-12-27T02:43:27.363Z,98.59
2022-12-27T02:46:22.794Z,98.61
2022-12-27T02:49:18.030Z,98.94
2022-12-27T02:52:19.268Z,99.09
2022-12-27T02:55:14.407Z,99.02
2022-12-27T02:58:01.219Z,99.19
2022-12-27T03:00:58.179Z,99.27
2022-12-27T03:03:48.802Z,99.33
2022-12-27T03:06:41.772Z,99.62
2022-12-27T03:09:46.024Z,99.88
2022-12-27T03:13:11.272Z,99.96
2022-12-27T03:15:56.887Z,99.81
2022-12-27T03:18:49.279Z,99.93
2022-12-27T03:21:43.879Z,99.75
2022-12-27T03:24:32.027Z,99.37
2022-12-27T03:27:00.566Z,99.02
2022-12-27T03:29:47.207Z,98.73
2022-12-27T03:32:34.904Z,98.39
2022-12-27T03:35:12.544Z,98.32
2022-12-27T03:38:02.095Z,98.44
2022-12-27T03:41:01.669Z,98.52
2022-12-27T03:43:30.503Z,98.41
2022-12-27T03:46:36.669Z,98.71
2022-12-27T03:49:25.474Z,98.78
2022-12-27T03:52:08.545Z,99.33
2022-12-27T03:54:44.217Z,98.83
2022-12-27T03:57:24.211Z,98.55
2022-12-27T03:59:52.402Z,98.55
2022-12-27T04:02:20.471Z,98.91
2022-12-27T04:04:50.467Z,99.21
2022-12-27T04:07:18.101Z,99.18
2022-12-27T04:10:04.265Z,99.38
2022-12-27T04:12:50.538Z,99.30
2022-12-27T04:15:36.702Z,98.94
2022-12-27T04:18:23.543Z,98.92
2022-12-27T04:21:10.330Z,99.45
2022-12-27T04:23:56.577Z,99.56
2022-12-27T04:26:42.594Z,99.34
2022-12-27T04:29:29.245Z,99.33
2022-12-27T04:32:15.241Z,99.18
2022-12-27T04:34:43.638Z,99.24
2022-12-27T04:37:15.508Z,99.12
2022-12-27T04:40:03.430Z,99.20
2022-12-27T04:42:49.806Z,99.04
2022-12-27T04:45:36.076Z,99.00
2022-12-27T04:48:22.350Z,98.71
2022-12-27T04:51:08.690Z,98.91
2022-12-27T04:53:54.829Z,98.82
2022-12-27T04:56:22.576Z,98.58
2022-12-27T04:59:08.631Z,98.55
2022-12-27T05:01:55.386Z,98.29
2022-12-27T05:04:23.239Z,98.53
2022-12-27T05:06:51.040Z,98.90
2022-12-27T05:09:38.070Z,98.93
2022-12-27T05:12:24.655Z,99.03
2022-12-27T05:14:52.084Z,99.07
2022-12-27T05:17:19.865Z,98.73
2022-12-27T05:19:47.283Z,98.94
2022-12-27T05:22:33.263Z,98.77
2022-12-27T05:25:19.267Z,98.85
2022-12-27T05:27:46.750Z,99.00
2022-12-27T05:30:15.664Z,98.70
2022-12-27T05:32:43.160Z,98.42
2022-12-27T05:35:10.701Z,98.18
2022-12-27T05:37:38.428Z,98.28
2022-12-27T05:40:09.426Z,97.99
2022-12-27T05:42:36.856Z,97.98
2022-12-27T05:45:05.094Z,98.02
2022-12-27T05:47:32.746Z,97.66
2022-12-27T05:50:00.167Z,97.23
2022-12-27T05:52:30.467Z,97.28
2022-12-27T05:54:57.902Z,97.14
2022-12-27T05:57:25.380Z,97.30
2022-12-27T05:59:53.217Z,97.49
2022-12-27T06:02:20.748Z,97.04
2022-12-27T06:04:48.558Z,97.37
2022-12-27T06:07:16.452Z,97.29
2022-12-27T06:09:44.081Z,97.28
2022-12-27T06:12:11.868Z,97.23
2022-12-27T06:14:39.314Z,97.33
2022-12-27T06:17:07.077Z,97.00
2022-12-27T06:19:34.866Z,96.95
2022-12-27T06:22:02.339Z,96.72
2022-12-27T06:24:29.826Z,96.26
2022-12-27T06:26:57.542Z,96.33
2022-12-27T06:29:24.977Z,96.09
2022-12-27T06:31:52.656Z,96.32
2022-12-27T06:34:20.515Z,96.25
2022-12-27T06:36:50.922Z,95.98
2022-12-27T06:39:19.449Z,96.71
2022-12-27T06:41:47.372Z,95.95
2022-12-27T06:44:14.786Z,96.38
2022-12-27T06:46:42.320Z,96.12
2022-12-27T06:49:10.708Z,95.75
2022-12-27T06:51:38.190Z,95.75
2022-12-27T06:54:05.679Z,95.14
2022-12-27T06:56:33.447Z,95.21
2022-12-27T06:59:01.036Z,94.83
2022-12-27T07:01:28.622Z,94.88
2022-12-27T07:03:59.224Z,94.40
2022-12-27T07:06:29.974Z,93.99
2022-12-27T07:09:00.150Z,93.90
2022-12-27T07:11:27.961Z,94.63
2022-12-27T07:13:56.956Z,94.25
2022-12-27T07:16:27.422Z,94.04
2022-12-27T07:18:56.823Z,94.09
2022-12-27T07:21:27.150Z,93.99
2022-12-27T07:23:55.606Z,93.48
2022-12-27T07:26:27.828Z,93.33
2022-12-27T07:28:58.139Z,93.18
2022-12-27T07:31:29.746Z,93.07
2022-12-27T07:33:58.729Z,92.52
2022-12-27T07:36:29.887Z,92.95
2022-12-27T07:38:57.675Z,92.44
2022-12-27T07:41:25.575Z,92.63
2022-12-27T07:43:53.987Z,91.93
2022-12-27T07:46:24.625Z,92.25
2022-12-27T07:48:57.131Z,91.29
2022-12-27T07:51:26.957Z,91.39
2022-12-27T07:53:54.877Z,91.30
2022-12-27T07:56:26.671Z,91.62
2022-12-27T07:58:56.892Z,90.85
2022-12-27T08:01:27.585Z,91.02
2022-12-27T08:03:56.880Z,90.43
2022-12-27T08:06:33.683Z,89.97
2022-12-27T08:09:06.894Z,89.92
2022-12-27T08:11:34.650Z,89.83
2022-12-27T08:14:02.412Z,90.06
2022-12-27T08:16:30.006Z,89.51
2022-12-27T08:18:58.419Z,88.68
2022-12-27T08:21:28.803Z,88.39
2022-12-27T08:23:56.214Z,88.06
2022-12-27T08:26:24.350Z,87.88
2022-12-27T08:28:52.493Z,85.46
2022-12-27T08:31:20.321Z,82.48
2022-12-27T08:33:47.820Z,79.63
2022-12-27T08:36:53.504Z,75.41
2022-12-27T08:39:03.201Z,72.53
2022-12-27T08:41:34.512Z,70.35
2022-12-27T08:44:02.003Z,70.74
2022-12-27T08:46:29.604Z,68.11
2022-12-27T08:48:57.388Z,66.60
2022-12-27T08:51:34.261Z,66.19
2022-12-27T08:54:03.778Z,66.52
2022-12-27T08:56:31.333Z,66.50
2022-12-27T08:58:59.264Z,65.67
2022-12-27T09:01:27.483Z,64.62
2022-12-27T09:03:55.428Z,65.21
2022-12-27T09:06:24.634Z,64.99
2022-12-27T09:08:54.652Z,63.53
2022-12-27T09:11:31.092Z,64.64
2022-12-27T09:14:01.963Z,65.05
2022-12-27T09:16:30.212Z,63.50
2022-12-27T09:18:59.034Z,64.06
2022-12-27T09:21:29.879Z,63.22
2022-12-27T09:23:58.149Z,63.22
2022-12-27T09:26:29.162Z,62.31
2022-12-27T09:28:58.392Z,62.85
2022-12-27T09:31:27.138Z,63.99
2022-12-27T09:33:55.123Z,63.36
2022-12-27T09:36:28.519Z,64.36
2022-12-27T09:38:58.178Z,64.42
2022-12-27T09:44:40.326Z,64.57
2022-12-27T09:47:29.303Z,64.39
2022-12-27T09:50:06.119Z,64.05
2022-12-27T09:52:49.131Z,64.04
2022-12-27T09:55:29.971Z,62.66
2022-12-27T09:58:09.946Z,62.15
2022-12-27T10:00:40.028Z,62.02
2022-12-27T10:03:13.002Z,61.68
2022-12-27T10:05:45.050Z,60.97
2022-12-27T10:08:58.140Z,61.61
2022-12-27T10:11:59.981Z,62.58
2022-12-27T10:14:50.321Z,62.10
2022-12-27T10:17:24.471Z,62.75
2022-12-27T10:20:13.205Z,62.40
2022-12-27T10:22:50.385Z,62.79
2022-12-27T10:25:21.678Z,61.94
2022-12-27T10:27:54.012Z,62.75
2022-12-27T10:30:22.862Z,63.00
2022-12-27T10:32:50.851Z,63.96
2022-12-27T10:35:21.287Z,63.73
2022-12-27T10:37:50.010Z,63.29
2022-12-27T10:40:26.086Z,63.53
2022-12-27T10:43:03.708Z,63.89
2022-12-27T10:45:39.641Z,64.04
2022-12-27T10:48:15.287Z,64.13
2022-12-27T10:50:53.594Z,64.41
2022-12-27T10:53:38.594Z,64.17
2022-12-27T10:56:16.879Z,64.50
2022-12-27T10:58:52.966Z,63.24
2022-12-27T11:01:25.572Z,63.00
2022-12-27T11:04:21.172Z,63.48
2022-12-27T11:07:09.398Z,64.26
2022-12-27T11:09:50.377Z,65.03
2022-12-27T11:12:28.788Z,65.76
2022-12-27T11:14:59.972Z,65.50
2022-12-27T11:17:49.148Z,65.03
2022-12-27T11:20:38.358Z,66.54
2022-12-27T11:23:15.149Z,66.58
2022-12-27T11:25:54.421Z,66.34
2022-12-27T11:28:39.318Z,66.13
2022-12-27T11:31:10.167Z,66.56
2022-12-27T11:33:41.195Z,66.98
2022-12-27T11:36:10.811Z,64.38
2022-12-27T11:38:43.034Z,64.68
2022-12-27T11:41:49.898Z,65.02
2022-12-27T11:44:34.425Z,65.17
2022-12-27T11:47:33.056Z,65.45
2022-12-27T11:50:22.258Z,66.68
2022-12-27T11:52:59.011Z,67.41
2022-12-27T11:55:52.817Z,67.49
2022-12-27T11:58:32.749Z,67.04
2022-12-27T12:01:29.194Z,67.20
2022-12-27T12:04:22.441Z,68.39
2022-12-27T12:07:17.464Z,68.37
2022-12-27T12:09:54.367Z,68.72
2022-12-27T12:12:46.871Z,68.21
2022-12-27T12:15:52.366Z,69.19
2022-12-27T12:18:58.658Z,69.66
2022-12-27T12:21:33.445Z,68.73
2022-12-27T12:24:19.555Z,68.75
2022-12-27T12:27:23.003Z,68.88
2022-12-27T12:30:00.575Z,69.38
2022-12-27T12:32:43.695Z,68.70
2022-12-27T12:35:35.632Z,69.56
2022-12-27T12:38:12.058Z,69.92
2022-12-27T12:40:54.745Z,68.66
2022-12-27T12:43:50.037Z,67.06
2022-12-27T12:46:41.643Z,64.05
2022-12-27T12:49:28.142Z,59.29
2022-12-27T12:52:16.991Z,57.18
2022-12-27T12:55:03.771Z,56.03
2022-12-27T12:57:53.638Z,56.63
2022-12-27T13:00:39.599Z,55.98
2022-12-27T13:03:31.955Z,56.08
2022-12-27T13:06:18.254Z,56.22
2022-12-27T13:08:55.649Z,55.59
2022-12-27T13:11:41.942Z,56.33
2022-12-27T13:14:55.180Z,56.20
2022-12-27T13:17:47.984Z,57.42
2022-12-27T13:20:33.682Z,57.89
2022-12-27T13:23:27.102Z,58.06
2022-12-27T13:26:12.788Z,59.14
2022-12-27T13:29:19.434Z,59.73
2022-12-27T13:32:02.247Z,59.67
2022-12-27T13:34:37.541Z,59.10
2022-12-27T13:37:20.277Z,57.96
2022-12-27T13:39:47.979Z,57.88
2022-12-27T13:42:39.130Z,58.35
2022-12-27T13:45:28.123Z,59.32
2022-12-27T13:48:16.327Z,59.59
2022-12-27T13:51:05.443Z,59.44
2022-12-27T13:53:51.359Z,61.63
2022-12-27T13:56:54.041Z,61.13
2022-12-27T13:59:43.930Z,61.61
2022-12-27T14:02:42.691Z,62.51
2022-12-27T14:05:41.695Z,63.28
2022-12-27T14:08:31.245Z,63.60
2022-12-27T14:11:01.337Z,63.83
2022-12-27T14:13:36.181Z,63.78
2022-12-27T14:16:29.179Z,64.00
2022-12-27T14:19:10.050Z,63.39
2022-12-27T14:21:57.790Z,65.23
2022-12-27T14:24:46.555Z,63.54
2022-12-27T14:27:32.757Z,62.49
2022-12-27T14:30:19.320Z,59.63
2022-12-27T14:33:08.240Z,58.22
2022-12-27T14:35:56.476Z,58.45
2022-12-27T14:38:33.236Z,55.83
2022-12-27T14:41:34.304Z,55.06
2022-12-27T14:44:29.605Z,55.60
2022-12-27T14:47:31.124Z,55.09
2022-12-27T14:50:37.095Z,56.75
2022-12-27T14:53:19.427Z,57.33
2022-12-27T14:55:53.114Z,56.19
2022-12-27T14:58:51.162Z,57.19
2022-12-27T15:01:39.862Z,57.20
2022-12-27T15:04:31.969Z,58.55
2022-12-27T15:07:19.563Z,57.52
2022-12-27T15:10:21.699Z,58.90
2022-12-27T15:13:05.519Z,58.53
2022-12-27T15:15:53.342Z,59.26
2022-12-27T15:18:50.792Z,59.38
2022-12-27T15:21:42.626Z,59.44
2022-12-27T15:24:44.287Z,59.30
2022-12-27T15:27:16.442Z,60.55
2022-12-27T15:30:15.885Z,60.11
2022-12-27T15:33:07.694Z,59.96
2022-12-27T15:35:52.439Z,59.44
2022-12-27T15:38:41.324Z,60.18
2022-12-27T15:41:09.242Z,60.97
2022-12-27T15:43:54.290Z,61.29
2022-12-27T15:46:55.998Z,60.90
2022-12-27T15:50:01.300Z,60.83
2022-12-27T15:52:46.525Z,61.59
2022-12-27T15:56:07.227Z,61.97
2022-12-27T15:58:35.175Z,61.62
2022-12-27T16:01:28.058Z,61.88
2022-12-27T16:03:58.488Z,62.34
2022-12-27T16:06:35.066Z,63.21
2022-12-27T16:09:20.880Z,62.10
2022-12-27T16:12:03.528Z,62.40
2022-12-27T16:14:35.116Z,62.50
2022-12-27T16:17:59.850Z,62.95
2022-12-27T16:20:29.142Z,63.84
2022-12-27T16:23:08.047Z,63.11
2022-12-27T16:25:38.704Z,63.14
2022-12-27T16:28:15.921Z,64.29
2022-12-27T16:30:50.123Z,62.99
2022-12-27T16:33:26.674Z,63.61
2022-12-27T16:36:12.258Z,63.56
2022-12-27T16:38:56.942Z,63.79
2022-12-27T16:41:24.620Z,64.54
2022-12-27T16:44:15.402Z,64.00
2022-12-27T16:46:51.967Z,64.80
2022-12-27T16:49:35.627Z,64.40
2022-12-27T16:52:03.821Z,63.50
2022-12-27T16:55:12.851Z,62.73
2022-12-27T16:57:44.167Z,63.85
2022-12-27T17:00:11.666Z,63.35
2022-12-27T17:02:46.597Z,63.28
2022-12-27T17:05:14.369Z,63.91
2022-12-27T17:07:49.249Z,64.07
2022-12-27T17:10:30.269Z,64.59
2022-12-27T17:12:59.777Z,63.41
2022-12-27T17:15:28.137Z,63.68
2022-12-27T17:18:04.372Z,64.53
2022-12-27T17:20:32.687Z,64.11
2022-12-27T17:23:04.191Z,64.87
2022-12-27T17:25:48.552Z,63.88
2022-12-27T17:28:28.283Z,64.18
2022-12-27T17:31:08.218Z,63.86
2022-12-27T17:34:03.268Z,64.54
2022-12-27T17:37:01.764Z,64.96
2022-12-27T17:40:10.905Z,65.65
2022-12-27T17:43:21.443Z,64.62
2022-12-27T17:45:57.759Z,64.43
2022-12-27T17:48:29.103Z,65.02
2022-12-27T17:51:02.338Z,65.77
2022-12-27T17:53:49.104Z,65.37
2022-12-27T17:56:38.043Z,65.60
2022-12-27T17:59:26.496Z,65.25
2022-12-27T18:01:59.257Z,64.82
2022-12-27T18:04:36.954Z,65.27
2022-12-27T18:07:07.529Z,65.32
2022-12-27T18:09:35.368Z,65.36
2022-12-27T18:12:10.225Z,65.48
2022-12-27T18:14:38.254Z,66.93
2022-12-27T18:17:06.119Z,65.81
2022-12-27T18:19:33.821Z,65.63
2022-12-27T18:22:02.888Z,65.37
2022-12-27T18:24:33.151Z,65.89
2022-12-27T18:27:16.033Z,65.44
2022-12-27T18:29:44.045Z,65.39
2022-12-27T18:32:15.963Z,66.11
2022-12-27T18:34:46.190Z,65.70
2022-12-27T18:37:18.915Z,65.63
2022-12-27T18:40:00.482Z,66.00
2022-12-27T18:42:44.774Z,66.77
2022-12-27T18:45:20.687Z,67.24
2022-12-27T18:47:52.519Z,67.87
2022-12-27T18:50:25.690Z,68.33
2022-12-27T18:53:05.703Z,67.69
2022-12-27T18:55:34.269Z,68.85
2022-12-27T18:58:19.870Z,68.59
2022-12-27T19:01:13.860Z,69.18
2022-12-27T19:03:41.696Z,69.46
2022-12-27T19:06:13.122Z,68.69
2022-12-27T19:08:51.374Z,69.57
2022-12-27T19:11:25.723Z,69.13
2022-12-27T19:13:56.699Z,69.11
2022-12-27T19:16:29.222Z,69.25
2022-12-27T19:19:08.269Z,69.97
2022-12-27T19:21:38.496Z,69.72
2022-12-27T19:24:24.126Z,69.80
2022-12-27T19:26:52.497Z,69.92
2022-12-27T19:29:23.013Z,70.44
2022-12-27T19:32:06.827Z,70.92
2022-12-27T19:34:51.556Z,70.67
2022-12-27T19:37:19.439Z,71.11
2022-12-27T19:39:48.736Z,70.61
2022-12-27T19:42:27.009Z,71.40
2022-12-27T19:44:54.919Z,70.44
2022-12-27T19:47:22.582Z,71.55
2022-12-27T19:49:50.039Z,71.16
2022-12-27T19:52:24.054Z,71.30
2022-12-27T19:55:01.063Z,71.57
2022-12-27T19:57:28.837Z,70.90
2022-12-27T19:59:56.591Z,71.05
2022-12-27T20:02:24.385Z,71.36
2022-12-27T20:04:53.484Z,70.90
2022-12-27T20:07:25.480Z,71.07
2022-12-27T20:09:53.985Z,71.39
2022-12-27T20:12:21.747Z,71.94
2022-12-27T20:14:49.241Z,71.48
2022-12-27T20:17:17.063Z,71.67
2022-12-27T20:19:45.026Z,73.42
2022-12-27T20:22:12.583Z,72.98
2022-12-27T20:24:40.495Z,72.02
2022-12-27T20:27:07.946Z,74.98
2022-12-27T20:29:35.771Z,72.88
2022-12-27T20:32:04.073Z,72.37
2022-12-27T20:34:31.789Z,74.77
2022-12-27T20:37:00.288Z,74.02
2022-12-27T20:39:28.269Z,74.66
2022-12-27T20:41:56.318Z,74.09
2022-12-27T20:44:23.972Z,76.32
2022-12-27T20:46:51.730Z,72.53
2022-12-27T20:49:19.453Z,73.83
2022-12-27T20:51:46.916Z,73.63
2022-12-27T20:54:16.505Z,72.79
2022-12-27T20:56:44.238Z,73.41
2022-12-27T20:59:12.126Z,77.17
2022-12-27T21:01:40.021Z,79.28
2022-12-27T21:04:07.603Z,79.96
2022-12-27T21:06:35.165Z,80.04
2022-12-27T21:09:03.107Z,80.69
2022-12-27T21:11:32.288Z,81.56
2022-12-27T21:14:04.336Z,80.53
2022-12-27T21:16:34.683Z,77.63
2022-12-27T21:19:04.907Z,76.26
2022-12-27T21:21:35.561Z,75.25
2022-12-27T21:24:03.731Z,76.15
2022-12-27T21:26:33.709Z,77.84
2022-12-27T21:29:04.097Z,77.80
2022-12-27T21:31:31.840Z,79.11
2022-12-27T21:34:00.191Z,77.24
2022-12-27T21:36:30.509Z,75.15
2022-12-27T21:38:58.997Z,75.81
2022-12-27T21:41:28.815Z,75.48
2022-12-27T21:43:56.813Z,75.91
2022-12-27T21:46:30.185Z,76.02
2022-12-27T21:49:03.222Z,76.17
2022-12-27T21:51:32.570Z,74.88
2022-12-27T21:54:00.856Z,74.57
2022-12-27T21:56:29.269Z,75.98
2022-12-27T21:58:59.037Z,74.56
2022-12-27T22:01:50.819Z,75.08
2022-12-27T22:04:21.554Z,76.09
2022-12-27T22:06:49.417Z,74.55
2022-12-27T22:09:16.853Z,75.32
2022-12-27T22:11:45.022Z,76.01
2022-12-27T22:14:12.503Z,75.34
2022-12-27T22:16:40.075Z,75.46
2022-12-27T22:19:10.138Z,75.61
2022-12-27T22:21:39.233Z,73.44
2022-12-27T22:24:12.898Z,74.96
2022-12-27T22:26:41.865Z,74.34
2022-12-27T22:29:10.102Z,74.05
2022-12-27T22:31:38.170Z,73.33
2022-12-27T22:34:06.369Z,73.18
2022-12-27T22:36:34.625Z,72.39
2022-12-27T22:39:02.521Z,73.53
2022-12-27T22:41:32.829Z,74.26
2022-12-27T22:44:10.538Z,73.02
2022-12-27T22:47:06.683Z,76.54
2022-12-27T22:49:26.551Z,78.37
2022-12-27T22:51:54.247Z,77.17
2022-12-27T22:54:21.679Z,77.01
2022-12-27T22:57:09.361Z,75.12
2022-12-27T22:59:36.731Z,74.24
2022-12-27T23:02:04.426Z,74.73
2022-12-27T23:04:32.246Z,75.44
2022-12-27T23:07:02.051Z,76.38
2022-12-27T23:09:40.871Z,77.37
2022-12-27T23:12:11.683Z,75.16
2022-12-27T23:14:40.020Z,73.56
2022-12-27T23:17:07.527Z,74.09
2022-12-27T23:19:35.574Z,73.51
2022-12-27T23:22:03.097Z,72.35
2022-12-27T23:24:30.625Z,71.43
2022-12-27T23:26:58.396Z,72.26
2022-12-27T23:29:25.822Z,72.07
2022-12-27T23:31:54.342Z,73.87
2022-12-27T23:34:28.187Z,73.47
2022-12-27T23:36:57.889Z,73.07
2022-12-27T23:39:26.161Z,73.36
2022-12-27T23:41:54.033Z,74.02
2022-12-27T23:44:33.160Z,73.73
2022-12-27T23:47:06.243Z,74.89
2022-12-27T23:49:34.208Z,76.01
2022-12-27T23:52:02.038Z,76.00
2022-12-27T23:54:29.522Z,77.40
2022-12-27T23:56:57.009Z,75.97
2022-12-27T23:59:24.849Z,74.50
